sensor_id;sensor_type;location;lat;lon;timestamp;P1;durP1;ratioP1;P2;durP2;ratioP2
21777;SDS011;11050;52.222;20.916;2023-05-07T00:00:08;5.13;;;3.90;;
21777;SDS011;11050;52.222;20.916;2023-05-07T00:02:34;7.90;;;4.00;;
21777;SDS011;11050;52.222;20.916;2023-05-07T00:05:01;4.67;;;3.73;;
21777;SDS011;11050;52.222;20.916;2023-05-07T00:07:27;5.80;;;4.10;;
21777;SDS011;11050;52.222;20.916;2023-05-07T00:09:53;5.87;;;3.80;;
21777;SDS011;11050;52.222;20.916;2023-05-07T00:12:19;8.43;;;4.30;;
21777;SDS011;11050;52.222;20.916;2023-05-07T00:14:45;6.77;;;3.73;;
21777;SDS011;11050;52.222;20.916;2023-05-07T00:17:11;6.57;;;4.00;;
21777;SDS011;11050;52.222;20.916;2023-05-07T00:19:36;6.37;;;3.97;;
21777;SDS011;11050;52.222;20.916;2023-05-07T00:22:02;6.30;;;4.00;;
21777;SDS011;11050;52.222;20.916;2023-05-07T00:24:28;6.03;;;3.63;;
21777;SDS011;11050;52.222;20.916;2023-05-07T00:26:53;7.33;;;4.20;;
21777;SDS011;11050;52.222;20.916;2023-05-07T00:29:19;6.30;;;4.00;;
21777;SDS011;11050;52.222;20.916;2023-05-07T00:31:45;6.57;;;4.30;;
21777;SDS011;11050;52.222;20.916;2023-05-07T00:34:10;6.33;;;4.30;;
21777;SDS011;11050;52.222;20.916;2023-05-07T00:36:36;5.73;;;4.17;;
21777;SDS011;11050;52.222;20.916;2023-05-07T00:39:02;5.87;;;3.73;;
21777;SDS011;11050;52.222;20.916;2023-05-07T00:41:28;5.60;;;4.03;;
21777;SDS011;11050;52.222;20.916;2023-05-07T00:43:55;6.20;;;3.90;;
21777;SDS011;11050;52.222;20.916;2023-05-07T00:46:21;6.70;;;4.37;;
21777;SDS011;11050;52.222;20.916;2023-05-07T00:48:49;5.43;;;3.67;;
21777;SDS011;11050;52.222;20.916;2023-05-07T00:51:16;5.60;;;3.83;;
21777;SDS011;11050;52.222;20.916;2023-05-07T00:53:43;5.77;;;4.40;;
21777;SDS011;11050;52.222;20.916;2023-05-07T00:56:09;6.60;;;3.83;;
21777;SDS011;11050;52.222;20.916;2023-05-07T00:58:36;5.33;;;3.93;;
21777;SDS011;11050;52.222;20.916;2023-05-07T01:01:02;5.30;;;3.80;;
21777;SDS011;11050;52.222;20.916;2023-05-07T01:03:28;7.37;;;4.03;;
21777;SDS011;11050;52.222;20.916;2023-05-07T01:05:54;5.17;;;3.37;;
21777;SDS011;11050;52.222;20.916;2023-05-07T01:08:22;5.30;;;4.10;;
21777;SDS011;11050;52.222;20.916;2023-05-07T01:10:51;6.07;;;3.80;;
21777;SDS011;11050;52.222;20.916;2023-05-07T01:13:17;9.40;;;4.00;;
21777;SDS011;11050;52.222;20.916;2023-05-07T01:15:44;7.73;;;4.10;;
21777;SDS011;11050;52.222;20.916;2023-05-07T01:18:10;6.27;;;3.17;;
21777;SDS011;11050;52.222;20.916;2023-05-07T01:20:36;5.20;;;3.93;;
21777;SDS011;11050;52.222;20.916;2023-05-07T01:23:01;5.27;;;3.27;;
21777;SDS011;11050;52.222;20.916;2023-05-07T01:25:28;4.20;;;3.30;;
21777;SDS011;11050;52.222;20.916;2023-05-07T01:27:55;6.33;;;3.80;;
21777;SDS011;11050;52.222;20.916;2023-05-07T01:30:21;6.27;;;3.90;;
21777;SDS011;11050;52.222;20.916;2023-05-07T01:32:48;6.57;;;3.70;;
21777;SDS011;11050;52.222;20.916;2023-05-07T01:35:22;5.20;;;3.23;;
21777;SDS011;11050;52.222;20.916;2023-05-07T01:37:54;4.50;;;3.20;;
21777;SDS011;11050;52.222;20.916;2023-05-07T01:40:20;5.37;;;3.57;;
21777;SDS011;11050;52.222;20.916;2023-05-07T01:42:46;4.93;;;3.43;;
21777;SDS011;11050;52.222;20.916;2023-05-07T01:45:13;4.57;;;3.60;;
21777;SDS011;11050;52.222;20.916;2023-05-07T01:47:39;4.73;;;3.47;;
21777;SDS011;11050;52.222;20.916;2023-05-07T01:50:05;4.63;;;3.33;;
21777;SDS011;11050;52.222;20.916;2023-05-07T01:52:36;4.97;;;3.40;;
21777;SDS011;11050;52.222;20.916;2023-05-07T01:55:03;4.83;;;3.67;;
21777;SDS011;11050;52.222;20.916;2023-05-07T01:57:30;7.83;;;3.33;;
21777;SDS011;11050;52.222;20.916;2023-05-07T01:59:56;4.50;;;3.33;;
21777;SDS011;11050;52.222;20.916;2023-05-07T02:02:22;4.73;;;2.90;;
21777;SDS011;11050;52.222;20.916;2023-05-07T02:04:47;5.40;;;4.20;;
21777;SDS011;11050;52.222;20.916;2023-05-07T02:07:13;5.20;;;3.57;;
21777;SDS011;11050;52.222;20.916;2023-05-07T02:09:39;5.17;;;3.40;;
21777;SDS011;11050;52.222;20.916;2023-05-07T02:12:04;4.57;;;3.10;;
21777;SDS011;11050;52.222;20.916;2023-05-07T02:14:30;6.50;;;3.50;;
21777;SDS011;11050;52.222;20.916;2023-05-07T02:16:56;4.50;;;3.77;;
21777;SDS011;11050;52.222;20.916;2023-05-07T02:19:21;5.63;;;3.37;;
21777;SDS011;11050;52.222;20.916;2023-05-07T02:21:47;6.03;;;3.30;;
21777;SDS011;11050;52.222;20.916;2023-05-07T02:24:13;4.10;;;3.07;;
21777;SDS011;11050;52.222;20.916;2023-05-07T02:26:39;5.40;;;3.40;;
21777;SDS011;11050;52.222;20.916;2023-05-07T02:29:06;8.73;;;2.93;;
21777;SDS011;11050;52.222;20.916;2023-05-07T02:31:32;4.53;;;3.00;;
21777;SDS011;11050;52.222;20.916;2023-05-07T02:33:59;5.10;;;3.47;;
21777;SDS011;11050;52.222;20.916;2023-05-07T02:36:25;5.83;;;3.97;;
21777;SDS011;11050;52.222;20.916;2023-05-07T02:38:51;4.73;;;2.97;;
21777;SDS011;11050;52.222;20.916;2023-05-07T02:41:17;6.97;;;3.40;;
21777;SDS011;11050;52.222;20.916;2023-05-07T02:43:43;7.80;;;3.60;;
21777;SDS011;11050;52.222;20.916;2023-05-07T02:46:08;3.93;;;3.23;;
21777;SDS011;11050;52.222;20.916;2023-05-07T02:48:34;4.57;;;3.50;;
21777;SDS011;11050;52.222;20.916;2023-05-07T02:51:01;4.90;;;3.20;;
21777;SDS011;11050;52.222;20.916;2023-05-07T02:53:27;5.80;;;3.63;;
21777;SDS011;11050;52.222;20.916;2023-05-07T02:55:55;5.33;;;3.20;;
21777;SDS011;11050;52.222;20.916;2023-05-07T02:58:25;4.23;;;2.93;;
21777;SDS011;11050;52.222;20.916;2023-05-07T03:00:51;8.03;;;3.40;;
21777;SDS011;11050;52.222;20.916;2023-05-07T03:03:19;5.60;;;3.03;;
21777;SDS011;11050;52.222;20.916;2023-05-07T03:05:45;5.03;;;3.00;;
21777;SDS011;11050;52.222;20.916;2023-05-07T03:08:11;5.57;;;3.33;;
21777;SDS011;11050;52.222;20.916;2023-05-07T03:10:37;4.97;;;3.00;;
21777;SDS011;11050;52.222;20.916;2023-05-07T03:13:03;4.70;;;2.93;;
21777;SDS011;11050;52.222;20.916;2023-05-07T03:15:29;4.00;;;2.80;;
21777;SDS011;11050;52.222;20.916;2023-05-07T03:17:54;4.43;;;2.73;;
21777;SDS011;11050;52.222;20.916;2023-05-07T03:20:20;6.43;;;3.10;;
21777;SDS011;11050;52.222;20.916;2023-05-07T03:22:46;4.67;;;3.23;;
21777;SDS011;11050;52.222;20.916;2023-05-07T03:25:12;5.23;;;3.20;;
21777;SDS011;11050;52.222;20.916;2023-05-07T03:27:39;4.40;;;3.00;;
21777;SDS011;11050;52.222;20.916;2023-05-07T03:30:07;4.10;;;2.47;;
21777;SDS011;11050;52.222;20.916;2023-05-07T03:32:33;3.73;;;2.57;;
21777;SDS011;11050;52.222;20.916;2023-05-07T03:35:00;4.80;;;3.23;;
21777;SDS011;11050;52.222;20.916;2023-05-07T03:37:26;4.43;;;2.43;;
21777;SDS011;11050;52.222;20.916;2023-05-07T03:39:52;5.30;;;3.27;;
21777;SDS011;11050;52.222;20.916;2023-05-07T03:42:17;4.50;;;3.07;;
21777;SDS011;11050;52.222;20.916;2023-05-07T03:44:43;4.27;;;2.43;;
21777;SDS011;11050;52.222;20.916;2023-05-07T03:47:09;4.27;;;2.97;;
21777;SDS011;11050;52.222;20.916;2023-05-07T03:49:35;5.13;;;3.17;;
21777;SDS011;11050;52.222;20.916;2023-05-07T03:52:01;5.90;;;2.83;;
21777;SDS011;11050;52.222;20.916;2023-05-07T03:54:27;5.43;;;3.30;;
21777;SDS011;11050;52.222;20.916;2023-05-07T03:56:53;4.53;;;2.90;;
21777;SDS011;11050;52.222;20.916;2023-05-07T03:59:18;3.53;;;2.80;;
21777;SDS011;11050;52.222;20.916;2023-05-07T04:01:44;5.73;;;3.17;;
21777;SDS011;11050;52.222;20.916;2023-05-07T04:04:10;5.13;;;3.00;;
21777;SDS011;11050;52.222;20.916;2023-05-07T04:06:35;3.77;;;3.00;;
21777;SDS011;11050;52.222;20.916;2023-05-07T04:09:02;5.53;;;3.27;;
21777;SDS011;11050;52.222;20.916;2023-05-07T04:11:28;4.23;;;2.83;;
21777;SDS011;11050;52.222;20.916;2023-05-07T04:13:53;3.50;;;2.60;;
21777;SDS011;11050;52.222;20.916;2023-05-07T04:16:19;4.93;;;3.40;;
21777;SDS011;11050;52.222;20.916;2023-05-07T04:18:45;4.13;;;2.80;;
21777;SDS011;11050;52.222;20.916;2023-05-07T04:21:14;3.93;;;2.80;;
21777;SDS011;11050;52.222;20.916;2023-05-07T04:23:41;4.00;;;2.57;;
21777;SDS011;11050;52.222;20.916;2023-05-07T04:26:07;3.90;;;2.90;;
21777;SDS011;11050;52.222;20.916;2023-05-07T04:28:33;5.00;;;2.67;;
21777;SDS011;11050;52.222;20.916;2023-05-07T04:31:00;4.27;;;3.17;;
21777;SDS011;11050;52.222;20.916;2023-05-07T04:33:25;4.33;;;2.80;;
21777;SDS011;11050;52.222;20.916;2023-05-07T04:35:51;6.17;;;3.43;;
21777;SDS011;11050;52.222;20.916;2023-05-07T04:38:17;4.07;;;3.17;;
21777;SDS011;11050;52.222;20.916;2023-05-07T04:40:43;4.43;;;3.00;;
21777;SDS011;11050;52.222;20.916;2023-05-07T04:43:10;3.80;;;2.90;;
21777;SDS011;11050;52.222;20.916;2023-05-07T04:45:35;4.43;;;3.40;;
21777;SDS011;11050;52.222;20.916;2023-05-07T04:48:02;4.47;;;2.80;;
21777;SDS011;11050;52.222;20.916;2023-05-07T04:50:27;5.63;;;3.30;;
21777;SDS011;11050;52.222;20.916;2023-05-07T04:52:53;3.47;;;3.10;;
21777;SDS011;11050;52.222;20.916;2023-05-07T04:55:19;4.37;;;2.70;;
21777;SDS011;11050;52.222;20.916;2023-05-07T04:57:44;3.37;;;2.63;;
21777;SDS011;11050;52.222;20.916;2023-05-07T05:00:10;3.50;;;2.70;;
21777;SDS011;11050;52.222;20.916;2023-05-07T05:02:39;3.93;;;2.57;;
21777;SDS011;11050;52.222;20.916;2023-05-07T05:05:06;4.43;;;2.70;;
21777;SDS011;11050;52.222;20.916;2023-05-07T05:07:32;4.53;;;2.87;;
21777;SDS011;11050;52.222;20.916;2023-05-07T05:09:58;3.23;;;2.80;;
21777;SDS011;11050;52.222;20.916;2023-05-07T05:12:24;4.07;;;2.90;;
21777;SDS011;11050;52.222;20.916;2023-05-07T05:14:50;4.47;;;2.63;;
21777;SDS011;11050;52.222;20.916;2023-05-07T05:17:15;3.73;;;2.47;;
21777;SDS011;11050;52.222;20.916;2023-05-07T05:19:41;3.93;;;3.10;;
21777;SDS011;11050;52.222;20.916;2023-05-07T05:22:07;5.40;;;2.77;;
21777;SDS011;11050;52.222;20.916;2023-05-07T05:24:32;3.77;;;2.57;;
21777;SDS011;11050;52.222;20.916;2023-05-07T05:26:58;4.87;;;2.77;;
21777;SDS011;11050;52.222;20.916;2023-05-07T05:29:27;4.23;;;2.57;;
21777;SDS011;11050;52.222;20.916;2023-05-07T05:31:52;3.40;;;2.93;;
21777;SDS011;11050;52.222;20.916;2023-05-07T05:34:18;5.03;;;2.90;;
21777;SDS011;11050;52.222;20.916;2023-05-07T05:36:47;4.67;;;3.03;;
21777;SDS011;11050;52.222;20.916;2023-05-07T05:39:12;3.60;;;2.43;;
21777;SDS011;11050;52.222;20.916;2023-05-07T05:41:39;5.63;;;3.40;;
21777;SDS011;11050;52.222;20.916;2023-05-07T05:44:05;6.40;;;2.90;;
21777;SDS011;11050;52.222;20.916;2023-05-07T05:46:31;4.73;;;2.60;;
21777;SDS011;11050;52.222;20.916;2023-05-07T05:48:57;6.05;;;2.60;;
21777;SDS011;11050;52.222;20.916;2023-05-07T05:51:23;2.63;;;2.27;;
21777;SDS011;11050;52.222;20.916;2023-05-07T05:53:49;3.60;;;2.50;;
21777;SDS011;11050;52.222;20.916;2023-05-07T05:56:15;5.53;;;2.70;;
21777;SDS011;11050;52.222;20.916;2023-05-07T05:58:41;3.20;;;2.60;;
21777;SDS011;11050;52.222;20.916;2023-05-07T06:01:07;3.13;;;2.67;;
21777;SDS011;11050;52.222;20.916;2023-05-07T06:03:33;2.57;;;2.20;;
21777;SDS011;11050;52.222;20.916;2023-05-07T06:05:58;4.47;;;2.30;;
21777;SDS011;11050;52.222;20.916;2023-05-07T06:08:25;3.50;;;2.40;;
21777;SDS011;11050;52.222;20.916;2023-05-07T06:10:55;2.37;;;1.93;;
21777;SDS011;11050;52.222;20.916;2023-05-07T06:13:21;4.03;;;2.20;;
21777;SDS011;11050;52.222;20.916;2023-05-07T06:15:47;4.00;;;1.97;;
21777;SDS011;11050;52.222;20.916;2023-05-07T06:18:14;2.37;;;2.10;;
21777;SDS011;11050;52.222;20.916;2023-05-07T06:20:39;2.77;;;2.00;;
21777;SDS011;11050;52.222;20.916;2023-05-07T06:23:05;2.40;;;1.70;;
21777;SDS011;11050;52.222;20.916;2023-05-07T06:25:31;3.00;;;2.00;;
21777;SDS011;11050;52.222;20.916;2023-05-07T06:27:56;2.73;;;2.10;;
21777;SDS011;11050;52.222;20.916;2023-05-07T06:30:22;4.00;;;2.27;;
21777;SDS011;11050;52.222;20.916;2023-05-07T06:32:48;5.57;;;2.50;;
21777;SDS011;11050;52.222;20.916;2023-05-07T06:35:13;3.00;;;2.20;;
21777;SDS011;11050;52.222;20.916;2023-05-07T06:37:40;2.92;;;2.05;;
21777;SDS011;11050;52.222;20.916;2023-05-07T06:40:07;4.00;;;2.67;;
21777;SDS011;11050;52.222;20.916;2023-05-07T06:42:35;4.13;;;2.17;;
21777;SDS011;11050;52.222;20.916;2023-05-07T06:45:02;2.63;;;2.03;;
21777;SDS011;11050;52.222;20.916;2023-05-07T06:47:28;3.15;;;2.38;;
21777;SDS011;11050;52.222;20.916;2023-05-07T06:49:54;2.60;;;1.97;;
21777;SDS011;11050;52.222;20.916;2023-05-07T06:52:20;2.10;;;1.90;;
21777;SDS011;11050;52.222;20.916;2023-05-07T06:54:46;2.27;;;2.00;;
21777;SDS011;11050;52.222;20.916;2023-05-07T06:57:11;2.95;;;2.00;;
21777;SDS011;11050;52.222;20.916;2023-05-07T06:59:37;2.60;;;2.30;;
21777;SDS011;11050;52.222;20.916;2023-05-07T07:02:03;2.10;;;1.88;;
21777;SDS011;11050;52.222;20.916;2023-05-07T07:04:28;5.75;;;2.00;;
21777;SDS011;11050;52.222;20.916;2023-05-07T07:06:55;3.17;;;2.40;;
21777;SDS011;11050;52.222;20.916;2023-05-07T07:09:21;2.63;;;2.40;;
21777;SDS011;11050;52.222;20.916;2023-05-07T07:11:47;3.30;;;2.08;;
21777;SDS011;11050;52.222;20.916;2023-05-07T07:14:13;5.97;;;2.15;;
21777;SDS011;11050;52.222;20.916;2023-05-07T07:16:39;3.50;;;1.92;;
21777;SDS011;11050;52.222;20.916;2023-05-07T07:19:05;3.17;;;2.30;;
21777;SDS011;11050;52.222;20.916;2023-05-07T07:21:31;2.20;;;1.95;;
21777;SDS011;11050;52.222;20.916;2023-05-07T07:23:57;2.22;;;2.00;;
21777;SDS011;11050;52.222;20.916;2023-05-07T07:26:22;2.78;;;1.90;;
21777;SDS011;11050;52.222;20.916;2023-05-07T07:28:48;3.38;;;2.35;;
21777;SDS011;11050;52.222;20.916;2023-05-07T07:31:14;2.97;;;2.22;;
21777;SDS011;11050;52.222;20.916;2023-05-07T07:33:40;2.45;;;2.05;;
21777;SDS011;11050;52.222;20.916;2023-05-07T07:36:06;2.90;;;2.10;;
21777;SDS011;11050;52.222;20.916;2023-05-07T07:38:32;2.40;;;2.20;;
21777;SDS011;11050;52.222;20.916;2023-05-07T07:40:59;3.15;;;2.30;;
21777;SDS011;11050;52.222;20.916;2023-05-07T07:43:25;2.22;;;2.03;;
21777;SDS011;11050;52.222;20.916;2023-05-07T07:45:51;3.75;;;2.20;;
21777;SDS011;11050;52.222;20.916;2023-05-07T07:48:17;3.20;;;2.17;;
21777;SDS011;11050;52.222;20.916;2023-05-07T07:50:42;4.72;;;2.33;;
21777;SDS011;11050;52.222;20.916;2023-05-07T07:53:08;3.13;;;2.25;;
21777;SDS011;11050;52.222;20.916;2023-05-07T07:55:37;3.75;;;2.00;;
21777;SDS011;11050;52.222;20.916;2023-05-07T07:58:06;2.15;;;1.95;;
21777;SDS011;11050;52.222;20.916;2023-05-07T08:00:32;3.53;;;1.90;;
21777;SDS011;11050;52.222;20.916;2023-05-07T08:02:57;2.30;;;2.10;;
21777;SDS011;11050;52.222;20.916;2023-05-07T08:05:23;3.28;;;2.30;;
21777;SDS011;11050;52.222;20.916;2023-05-07T08:07:49;2.33;;;2.00;;
21777;SDS011;11050;52.222;20.916;2023-05-07T08:10:17;4.75;;;2.67;;
21777;SDS011;11050;52.222;20.916;2023-05-07T08:12:46;2.40;;;2.00;;
21777;SDS011;11050;52.222;20.916;2023-05-07T08:15:16;2.72;;;2.10;;
21777;SDS011;11050;52.222;20.916;2023-05-07T08:17:42;3.28;;;2.10;;
21777;SDS011;11050;52.222;20.916;2023-05-07T08:20:08;3.97;;;2.10;;
21777;SDS011;11050;52.222;20.916;2023-05-07T08:22:35;3.60;;;2.22;;
21777;SDS011;11050;52.222;20.916;2023-05-07T08:25:01;3.03;;;2.22;;
21777;SDS011;11050;52.222;20.916;2023-05-07T08:27:28;2.25;;;2.05;;
21777;SDS011;11050;52.222;20.916;2023-05-07T08:29:54;2.40;;;2.20;;
21777;SDS011;11050;52.222;20.916;2023-05-07T08:32:19;3.38;;;2.70;;
21777;SDS011;11050;52.222;20.916;2023-05-07T08:34:46;3.95;;;2.63;;
21777;SDS011;11050;52.222;20.916;2023-05-07T08:37:12;5.90;;;2.50;;
21777;SDS011;11050;52.222;20.916;2023-05-07T08:39:54;3.64;;;2.10;;
21777;SDS011;11050;52.222;20.916;2023-05-07T08:42:20;3.92;;;2.20;;
21777;SDS011;11050;52.222;20.916;2023-05-07T08:44:50;2.35;;;1.98;;
21777;SDS011;11050;52.222;20.916;2023-05-07T08:47:19;2.63;;;2.40;;
21777;SDS011;11050;52.222;20.916;2023-05-07T08:49:54;2.80;;;2.00;;
21777;SDS011;11050;52.222;20.916;2023-05-07T08:52:20;2.28;;;1.98;;
21777;SDS011;11050;52.222;20.916;2023-05-07T08:54:46;3.63;;;2.00;;
21777;SDS011;11050;52.222;20.916;2023-05-07T08:57:12;4.35;;;2.53;;
21777;SDS011;11050;52.222;20.916;2023-05-07T08:59:38;2.35;;;2.13;;
21777;SDS011;11050;52.222;20.916;2023-05-07T09:02:05;3.08;;;1.95;;
21777;SDS011;11050;52.222;20.916;2023-05-07T09:04:35;3.85;;;2.20;;
21777;SDS011;11050;52.222;20.916;2023-05-07T09:07:01;3.30;;;2.20;;
21777;SDS011;11050;52.222;20.916;2023-05-07T09:09:31;2.13;;;1.90;;
21777;SDS011;11050;52.222;20.916;2023-05-07T09:11:58;3.33;;;2.53;;
21777;SDS011;11050;52.222;20.916;2023-05-07T09:14:25;2.15;;;1.80;;
21777;SDS011;11050;52.222;20.916;2023-05-07T09:16:54;2.60;;;2.15;;
21777;SDS011;11050;52.222;20.916;2023-05-07T09:19:23;2.92;;;1.98;;
21777;SDS011;11050;52.222;20.916;2023-05-07T09:21:57;2.55;;;1.63;;
21777;SDS011;11050;52.222;20.916;2023-05-07T09:24:25;2.28;;;2.00;;
21777;SDS011;11050;52.222;20.916;2023-05-07T09:26:50;2.15;;;1.90;;
21777;SDS011;11050;52.222;20.916;2023-05-07T09:29:16;2.70;;;2.00;;
21777;SDS011;11050;52.222;20.916;2023-05-07T09:31:42;2.35;;;1.95;;
21777;SDS011;11050;52.222;20.916;2023-05-07T09:34:08;3.38;;;1.85;;
21777;SDS011;11050;52.222;20.916;2023-05-07T09:36:34;3.97;;;2.00;;
21777;SDS011;11050;52.222;20.916;2023-05-07T09:39:00;2.97;;;2.03;;
21777;SDS011;11050;52.222;20.916;2023-05-07T09:41:26;4.13;;;1.77;;
21777;SDS011;11050;52.222;20.916;2023-05-07T09:43:55;2.20;;;1.83;;
21777;SDS011;11050;52.222;20.916;2023-05-07T09:46:27;2.80;;;1.98;;
21777;SDS011;11050;52.222;20.916;2023-05-07T09:48:56;2.20;;;1.88;;
21777;SDS011;11050;52.222;20.916;2023-05-07T09:51:25;3.15;;;1.67;;
21777;SDS011;11050;52.222;20.916;2023-05-07T09:53:56;2.65;;;1.98;;
21777;SDS011;11050;52.222;20.916;2023-05-07T09:56:25;2.58;;;1.92;;
21777;SDS011;11050;52.222;20.916;2023-05-07T09:58:52;2.75;;;2.03;;
21777;SDS011;11050;52.222;20.916;2023-05-07T10:01:21;3.35;;;2.00;;
21777;SDS011;11050;52.222;20.916;2023-05-07T10:03:50;2.72;;;2.05;;
21777;SDS011;11050;52.222;20.916;2023-05-07T10:06:17;1.98;;;1.77;;
21777;SDS011;11050;52.222;20.916;2023-05-07T10:08:45;3.10;;;2.10;;
21777;SDS011;11050;52.222;20.916;2023-05-07T10:11:12;3.58;;;1.65;;
21777;SDS011;11050;52.222;20.916;2023-05-07T10:13:39;5.50;;;1.75;;
21777;SDS011;11050;52.222;20.916;2023-05-07T10:16:06;3.67;;;1.75;;
21777;SDS011;11050;52.222;20.916;2023-05-07T10:18:32;2.53;;;1.50;;
21777;SDS011;11050;52.222;20.916;2023-05-07T10:21:04;2.20;;;1.80;;
21777;SDS011;11050;52.222;20.916;2023-05-07T10:24:02;5.30;;;2.13;;
21777;SDS011;11050;52.222;20.916;2023-05-07T10:26:42;3.35;;;1.73;;
21777;SDS011;11050;52.222;20.916;2023-05-07T10:32:13;3.45;;;1.70;;
21777;SDS011;11050;52.222;20.916;2023-05-07T10:34:53;4.65;;;2.03;;
21777;SDS011;11050;52.222;20.916;2023-05-07T10:37:24;2.25;;;1.63;;
21777;SDS011;11050;52.222;20.916;2023-05-07T10:39:51;2.05;;;1.85;;
21777;SDS011;11050;52.222;20.916;2023-05-07T10:42:17;1.80;;;1.50;;
21777;SDS011;11050;52.222;20.916;2023-05-07T10:44:43;2.95;;;1.48;;
21777;SDS011;11050;52.222;20.916;2023-05-07T10:47:09;2.20;;;1.58;;
21777;SDS011;11050;52.222;20.916;2023-05-07T10:49:52;1.90;;;1.55;;
21777;SDS011;11050;52.222;20.916;2023-05-07T10:52:31;5.68;;;2.08;;
21777;SDS011;11050;52.222;20.916;2023-05-07T10:57:44;1.58;;;1.33;;
21777;SDS011;11050;52.222;20.916;2023-05-07T11:05:27;2.30;;;1.63;;
21777;SDS011;11050;52.222;20.916;2023-05-07T11:07:58;3.85;;;1.77;;
21777;SDS011;11050;52.222;20.916;2023-05-07T11:10:50;2.15;;;1.35;;
21777;SDS011;11050;52.222;20.916;2023-05-07T11:13:16;3.72;;;1.80;;
21777;SDS011;11050;52.222;20.916;2023-05-07T11:15:45;3.63;;;2.00;;
21777;SDS011;11050;52.222;20.916;2023-05-07T11:18:13;3.38;;;1.88;;
21777;SDS011;11050;52.222;20.916;2023-05-07T11:26:00;2.30;;;1.77;;
21777;SDS011;11050;52.222;20.916;2023-05-07T11:28:29;2.80;;;1.80;;
21777;SDS011;11050;52.222;20.916;2023-05-07T11:31:01;2.63;;;1.40;;
21777;SDS011;11050;52.222;20.916;2023-05-07T11:33:27;2.88;;;1.70;;
21777;SDS011;11050;52.222;20.916;2023-05-07T11:35:55;2.13;;;1.80;;
21777;SDS011;11050;52.222;20.916;2023-05-07T11:38:21;2.90;;;1.90;;
21777;SDS011;11050;52.222;20.916;2023-05-07T11:40:48;2.05;;;1.50;;
21777;SDS011;11050;52.222;20.916;2023-05-07T11:43:20;2.50;;;1.50;;
21777;SDS011;11050;52.222;20.916;2023-05-07T11:45:46;1.73;;;1.50;;
21777;SDS011;11050;52.222;20.916;2023-05-07T11:48:13;2.50;;;1.55;;
21777;SDS011;11050;52.222;20.916;2023-05-07T11:50:53;1.92;;;1.45;;
21777;SDS011;11050;52.222;20.916;2023-05-07T11:53:26;2.85;;;1.60;;
21777;SDS011;11050;52.222;20.916;2023-05-07T11:56:00;5.45;;;1.90;;
21777;SDS011;11050;52.222;20.916;2023-05-07T11:58:39;3.13;;;1.70;;
21777;SDS011;11050;52.222;20.916;2023-05-07T12:01:09;1.75;;;1.50;;
21777;SDS011;11050;52.222;20.916;2023-05-07T12:03:41;2.63;;;1.80;;
21777;SDS011;11050;52.222;20.916;2023-05-07T12:06:12;5.68;;;2.00;;
21777;SDS011;11050;52.222;20.916;2023-05-07T12:08:42;2.50;;;1.60;;
21777;SDS011;11050;52.222;20.916;2023-05-07T12:11:14;1.92;;;1.45;;
21777;SDS011;11050;52.222;20.916;2023-05-07T12:13:47;2.25;;;1.92;;
21777;SDS011;11050;52.222;20.916;2023-05-07T12:16:12;2.53;;;1.70;;
21777;SDS011;11050;52.222;20.916;2023-05-07T12:18:39;3.28;;;1.70;;
21777;SDS011;11050;52.222;20.916;2023-05-07T12:21:05;2.42;;;1.55;;
21777;SDS011;11050;52.222;20.916;2023-05-07T12:23:33;5.93;;;1.90;;
21777;SDS011;11050;52.222;20.916;2023-05-07T12:26:01;3.10;;;1.65;;
21777;SDS011;11050;52.222;20.916;2023-05-07T12:28:27;2.75;;;1.80;;
21777;SDS011;11050;52.222;20.916;2023-05-07T12:30:53;2.67;;;1.80;;
21777;SDS011;11050;52.222;20.916;2023-05-07T12:33:23;6.70;;;1.73;;
21777;SDS011;11050;52.222;20.916;2023-05-07T12:35:50;4.63;;;1.40;;
21777;SDS011;11050;52.222;20.916;2023-05-07T12:38:19;1.55;;;1.42;;
21777;SDS011;11050;52.222;20.916;2023-05-07T12:40:49;3.13;;;1.63;;
21777;SDS011;11050;52.222;20.916;2023-05-07T12:43:19;2.42;;;1.30;;
21777;SDS011;11050;52.222;20.916;2023-05-07T12:45:47;1.50;;;1.30;;
21777;SDS011;11050;52.222;20.916;2023-05-07T12:48:15;7.90;;;1.50;;
21777;SDS011;11050;52.222;20.916;2023-05-07T12:50:42;3.15;;;1.90;;
21777;SDS011;11050;52.222;20.916;2023-05-07T12:53:09;3.67;;;1.60;;
21777;SDS011;11050;52.222;20.916;2023-05-07T12:55:46;1.88;;;1.35;;
21777;SDS011;11050;52.222;20.916;2023-05-07T12:58:25;2.97;;;1.70;;
21777;SDS011;11050;52.222;20.916;2023-05-07T13:01:09;1.80;;;1.40;;
21777;SDS011;11050;52.222;20.916;2023-05-07T13:03:37;2.58;;;1.60;;
21777;SDS011;11050;52.222;20.916;2023-05-07T13:06:04;2.40;;;1.38;;
21777;SDS011;11050;52.222;20.916;2023-05-07T13:08:39;3.28;;;1.65;;
21777;SDS011;11050;52.222;20.916;2023-05-07T13:11:08;2.55;;;1.30;;
21777;SDS011;11050;52.222;20.916;2023-05-07T13:13:35;2.25;;;1.67;;
21777;SDS011;11050;52.222;20.916;2023-05-07T13:16:04;1.38;;;1.27;;
21777;SDS011;11050;52.222;20.916;2023-05-07T13:18:32;1.33;;;1.20;;
21777;SDS011;11050;52.222;20.916;2023-05-07T13:20:59;5.15;;;1.40;;
21777;SDS011;11050;52.222;20.916;2023-05-07T13:23:26;2.90;;;1.70;;
21777;SDS011;11050;52.222;20.916;2023-05-07T13:25:53;1.63;;;1.52;;
21777;SDS011;11050;52.222;20.916;2023-05-07T13:28:19;4.40;;;1.88;;
21777;SDS011;11050;52.222;20.916;2023-05-07T13:30:46;3.35;;;1.55;;
21777;SDS011;11050;52.222;20.916;2023-05-07T13:33:12;1.42;;;1.27;;
21777;SDS011;11050;52.222;20.916;2023-05-07T13:35:38;3.17;;;1.60;;
21777;SDS011;11050;52.222;20.916;2023-05-07T13:38:04;3.20;;;1.85;;
21777;SDS011;11050;52.222;20.916;2023-05-07T13:40:30;2.00;;;1.48;;
21777;SDS011;11050;52.222;20.916;2023-05-07T13:42:57;2.50;;;1.98;;
21777;SDS011;11050;52.222;20.916;2023-05-07T13:45:26;1.67;;;1.50;;
21777;SDS011;11050;52.222;20.916;2023-05-07T13:47:54;1.95;;;1.75;;
21777;SDS011;11050;52.222;20.916;2023-05-07T13:50:21;2.35;;;1.33;;
21777;SDS011;11050;52.222;20.916;2023-05-07T13:52:47;1.40;;;1.30;;
21777;SDS011;11050;52.222;20.916;2023-05-07T13:55:19;4.55;;;1.50;;
21777;SDS011;11050;52.222;20.916;2023-05-07T13:57:46;2.95;;;1.42;;
21777;SDS011;11050;52.222;20.916;2023-05-07T14:00:12;1.70;;;1.35;;
21777;SDS011;11050;52.222;20.916;2023-05-07T14:02:39;1.45;;;1.20;;
21777;SDS011;11050;52.222;20.916;2023-05-07T14:05:06;2.22;;;1.60;;
21777;SDS011;11050;52.222;20.916;2023-05-07T14:07:32;2.20;;;1.50;;
21777;SDS011;11050;52.222;20.916;2023-05-07T14:09:59;4.75;;;1.45;;
21777;SDS011;11050;52.222;20.916;2023-05-07T14:12:24;3.33;;;1.50;;
21777;SDS011;11050;52.222;20.916;2023-05-07T14:14:50;1.77;;;1.45;;
21777;SDS011;11050;52.222;20.916;2023-05-07T14:17:16;2.53;;;1.40;;
21777;SDS011;11050;52.222;20.916;2023-05-07T14:19:43;2.10;;;1.70;;
21777;SDS011;11050;52.222;20.916;2023-05-07T14:22:09;1.65;;;1.17;;
21777;SDS011;11050;52.222;20.916;2023-05-07T14:24:35;2.72;;;1.75;;
21777;SDS011;11050;52.222;20.916;2023-05-07T14:27:01;2.58;;;1.40;;
21777;SDS011;11050;52.222;20.916;2023-05-07T14:29:27;3.42;;;1.60;;
21777;SDS011;11050;52.222;20.916;2023-05-07T14:31:53;2.08;;;1.40;;
21777;SDS011;11050;52.222;20.916;2023-05-07T14:34:19;4.45;;;1.65;;
21777;SDS011;11050;52.222;20.916;2023-05-07T14:36:45;2.03;;;1.40;;
21777;SDS011;11050;52.222;20.916;2023-05-07T14:39:10;2.60;;;1.42;;
21777;SDS011;11050;52.222;20.916;2023-05-07T14:41:36;1.77;;;1.40;;
21777;SDS011;11050;52.222;20.916;2023-05-07T14:44:02;5.45;;;1.98;;
21777;SDS011;11050;52.222;20.916;2023-05-07T14:46:29;2.53;;;1.60;;
21777;SDS011;11050;52.222;20.916;2023-05-07T14:48:55;2.92;;;1.77;;